createdAt,value
2023-02-02T01:59:24.335Z,7.74
2023-02-02T02:01:52.214Z,10.79
2023-02-02T02:04:19.276Z,11.33
2023-02-02T02:06:47.740Z,11.64
2023-02-02T02:09:14.832Z,11.87
2023-02-02T02:11:41.635Z,12.06
2023-02-02T02:14:28.762Z,12.20
2023-02-02T02:17:05.040Z,12.30
2023-02-02T02:20:13.936Z,12.38
2023-02-02T02:23:18.433Z,12.44
2023-02-02T02:26:33.493Z,12.48
2023-02-02T02:29:38.443Z,12.52
2023-02-02T02:32:14.823Z,12.58
2023-02-02T02:35:06.766Z,12.64
2023-02-02T02:37:39.433Z,12.69
2023-02-02T02:40:35.743Z,12.71
2023-02-02T02:43:08.988Z,12.71
2023-02-02T02:45:37.825Z,12.72
2023-02-02T02:48:06.389Z,12.72
2023-02-02T02:50:38.543Z,12.70
2023-02-02T02:53:21.562Z,12.69
2023-02-02T02:55:56.575Z,12.73
2023-02-02T02:58:24.593Z,12.77
2023-02-02T03:00:59.528Z,12.81
2023-02-02T03:03:37.441Z,12.85
2023-02-02T03:06:11.309Z,12.84
2023-02-02T03:08:46.576Z,12.84
2023-02-02T03:11:14.930Z,12.83
2023-02-02T03:13:43.128Z,12.83
2023-02-02T03:16:11.424Z,12.83
2023-02-02T03:18:39.640Z,12.85
2023-02-02T03:21:07.760Z,12.89
2023-02-02T03:23:36.070Z,12.95
2023-02-02T03:26:04.563Z,13.00
2023-02-02T03:28:33.221Z,12.99
2023-02-02T03:31:02.049Z,12.91
2023-02-02T03:33:31.291Z,12.89
2023-02-02T03:35:59.441Z,12.88
2023-02-02T03:38:27.462Z,12.89
2023-02-02T03:40:55.808Z,12.89
2023-02-02T03:43:24.271Z,12.90
2023-02-02T03:45:57.302Z,12.92
2023-02-02T03:48:25.868Z,12.94
2023-02-02T03:50:54.119Z,12.93
2023-02-02T03:53:22.945Z,12.93
2023-02-02T03:55:51.177Z,12.95
2023-02-02T03:58:22.441Z,12.97
2023-02-02T04:00:50.752Z,12.97
2023-02-02T04:03:18.901Z,12.98
2023-02-02T04:05:50.831Z,12.99
2023-02-02T04:08:18.851Z,12.99
2023-02-02T04:10:47.336Z,12.98
2023-02-02T04:13:15.818Z,12.96
2023-02-02T04:15:43.973Z,12.97
2023-02-02T04:18:12.356Z,12.98
2023-02-02T04:20:41.396Z,12.99
2023-02-02T04:23:09.605Z,13.00
2023-02-02T04:25:38.095Z,13.01
2023-02-02T04:28:06.219Z,12.99
2023-02-02T04:30:35.347Z,12.97
2023-02-02T04:33:04.053Z,12.95
2023-02-02T04:35:32.187Z,12.94
2023-02-02T04:38:00.745Z,12.92
2023-02-02T04:40:29.188Z,12.89
2023-02-02T04:42:58.381Z,12.89
2023-02-02T04:45:26.737Z,12.90
2023-02-02T04:47:55.095Z,12.90
2023-02-02T04:50:23.364Z,12.89
2023-02-02T04:52:51.402Z,12.90
2023-02-02T04:55:21.081Z,12.88
2023-02-02T04:57:49.212Z,12.84
2023-02-02T05:00:17.455Z,12.79
2023-02-02T05:02:46.512Z,12.76
2023-02-02T05:05:14.673Z,12.75
2023-02-02T05:07:43.112Z,12.73
2023-02-02T05:10:15.339Z,12.73
2023-02-02T05:12:45.940Z,12.74
2023-02-02T05:15:14.137Z,12.75
2023-02-02T05:17:42.947Z,12.78
2023-02-02T05:20:11.957Z,12.79
2023-02-02T05:22:40.640Z,12.82
2023-02-02T05:25:09.696Z,12.84
2023-02-02T05:27:37.827Z,12.87
2023-02-02T05:30:06.983Z,12.90
2023-02-02T05:32:35.242Z,12.85
2023-02-02T05:35:03.380Z,12.80
2023-02-02T05:37:32.034Z,12.79
2023-02-02T05:40:00.185Z,12.75
2023-02-02T05:42:28.666Z,12.71
2023-02-02T05:44:57.460Z,12.72
2023-02-02T05:47:25.511Z,12.73
2023-02-02T05:49:53.943Z,12.74
2023-02-02T05:52:22.595Z,12.77
2023-02-02T05:54:51.062Z,12.79
2023-02-02T05:57:19.098Z,12.77
2023-02-02T05:59:47.532Z,12.75
2023-02-02T06:02:15.578Z,12.73
2023-02-02T06:04:43.631Z,12.71
2023-02-02T06:07:12.654Z,12.68
2023-02-02T06:09:40.682Z,12.67
2023-02-02T06:12:09.023Z,12.66
2023-02-02T06:14:37.073Z,12.68
2023-02-02T06:17:06.851Z,12.70
2023-02-02T06:19:35.695Z,12.71
2023-02-02T06:22:03.976Z,12.74
2023-02-02T06:24:32.801Z,12.77
2023-02-02T06:27:00.945Z,12.77
2023-02-02T06:29:29.177Z,12.76
2023-02-02T06:31:57.388Z,12.75
2023-02-02T06:34:25.755Z,12.72
2023-02-02T06:36:54.256Z,12.70
2023-02-02T06:39:22.330Z,12.71
2023-02-02T06:41:52.161Z,12.76
2023-02-02T06:44:21.190Z,12.78
2023-02-02T06:46:50.132Z,12.79
2023-02-02T06:49:18.166Z,12.81
2023-02-02T06:51:49.692Z,12.81
2023-02-02T06:54:17.832Z,12.83
2023-02-02T06:56:45.964Z,12.85
2023-02-02T06:59:14.528Z,12.88
2023-02-02T07:01:43.111Z,12.89
2023-02-02T07:04:11.347Z,12.93
2023-02-02T07:06:40.464Z,12.98
2023-02-02T07:09:08.527Z,13.04
2023-02-02T07:11:39.757Z,13.12
2023-02-02T07:14:11.232Z,13.20
2023-02-02T07:16:39.754Z,13.25
2023-02-02T07:19:07.913Z,13.27
2023-02-02T07:21:38.932Z,13.30
2023-02-02T07:24:07.724Z,13.34
2023-02-02T07:26:36.744Z,13.35
2023-02-02T07:29:05.556Z,13.38
2023-02-02T07:31:36.809Z,13.42
2023-02-02T07:34:05.336Z,13.44
2023-02-02T07:36:34.120Z,13.46
2023-02-02T07:39:04.984Z,13.49
2023-02-02T07:41:36.670Z,13.55
2023-02-02T07:44:05.197Z,13.59
2023-02-02T07:46:33.447Z,13.63
2023-02-02T10:14:35.345Z,11.72
2023-02-02T10:17:22.983Z,15.28
2023-02-02T10:19:50.125Z,16.06
2023-02-02T10:22:19.591Z,16.37
2023-02-02T10:24:46.485Z,16.62
2023-02-02T10:27:15.115Z,16.79
2023-02-02T10:30:00.315Z,16.89
2023-02-02T10:33:05.455Z,16.92
2023-02-02T10:35:39.702Z,16.95
2023-02-02T10:38:43.109Z,16.90
2023-02-02T10:41:30.183Z,16.82
2023-02-02T10:44:06.659Z,16.79
2023-02-02T10:46:50.726Z,16.78
2023-02-02T10:49:28.283Z,16.74
2023-02-02T10:52:11.061Z,16.72
2023-02-02T10:55:03.634Z,16.73
2023-02-02T10:57:42.227Z,16.72
2023-02-02T11:00:23.110Z,16.71
2023-02-02T11:02:50.840Z,16.67
2023-02-02T11:05:41.959Z,16.64
2023-02-02T11:08:14.035Z,16.64
2023-02-02T11:10:42.791Z,16.64
2023-02-02T11:13:14.063Z,16.64
2023-02-02T11:15:40.897Z,16.66
2023-02-02T11:18:26.476Z,16.66
2023-02-02T11:20:53.548Z,16.67
2023-02-02T11:23:20.531Z,16.65
2023-02-02T11:26:00.252Z,16.65
2023-02-02T11:28:29.809Z,16.61
2023-02-02T11:30:56.752Z,16.57
2023-02-02T11:33:27.938Z,16.50
2023-02-02T11:36:05.645Z,16.43
2023-02-02T11:38:34.404Z,16.36
2023-02-02T11:41:06.472Z,16.33
2023-02-02T11:43:40.829Z,16.28
2023-02-02T11:46:17.190Z,16.22
2023-02-02T11:48:58.595Z,16.15
2023-02-02T11:51:26.347Z,16.15
2023-02-02T11:54:28.695Z,16.14
2023-02-02T11:56:57.458Z,16.12
2023-02-02T11:59:29.998Z,16.09
2023-02-02T12:02:12.464Z,16.08
2023-02-02T12:04:40.835Z,16.06
2023-02-02T12:07:37.166Z,16.04
2023-02-02T12:10:27.803Z,16.02
2023-02-02T12:13:09.550Z,16.00
2023-02-02T12:15:49.404Z,15.98
2023-02-02T12:18:22.747Z,15.93
2023-02-02T12:21:02.149Z,15.90
2023-02-02T12:23:42.565Z,15.82
2023-02-02T12:26:33.658Z,15.72
2023-02-02T12:29:25.763Z,15.64
2023-02-02T12:32:17.487Z,15.61
2023-02-02T12:34:50.784Z,15.58
2023-02-02T12:37:32.066Z,15.56
2023-02-02T12:40:20.630Z,15.55
2023-02-02T12:43:03.862Z,15.55
2023-02-02T12:45:49.966Z,15.57
2023-02-02T12:48:35.130Z,15.60
2023-02-02T12:51:41.666Z,15.61
2023-02-02T12:54:47.190Z,15.62
2023-02-02T12:57:21.890Z,15.63
2023-02-02T12:59:48.521Z,15.65
2023-02-02T13:02:30.596Z,15.66
2023-02-02T13:05:02.152Z,15.67
2023-02-02T13:07:32.597Z,15.65
2023-02-02T13:10:16.851Z,15.62
2023-02-02T13:12:48.311Z,15.59
2023-02-02T13:15:18.857Z,15.56
2023-02-02T13:17:58.817Z,15.54
2023-02-02T13:20:41.905Z,15.53
2023-02-02T13:23:15.149Z,15.51
2023-02-02T13:25:48.300Z,15.52
2023-02-02T13:28:46.071Z,15.51
2023-02-02T13:31:20.051Z,15.48
2023-02-02T13:33:49.584Z,15.44
2023-02-02T13:36:25.359Z,15.40
2023-02-02T13:38:57.035Z,15.34
2023-02-02T13:41:23.867Z,15.33
2023-02-02T13:44:14.675Z,15.31
2023-02-02T13:46:47.415Z,15.29
2023-02-02T13:49:32.006Z,15.28
2023-02-02T13:52:20.045Z,15.27
2023-02-02T13:55:24.902Z,15.26
2023-02-02T13:58:15.729Z,15.25
2023-02-02T14:00:47.143Z,15.21
2023-02-02T14:03:20.039Z,15.20
2023-02-02T14:06:00.936Z,15.17
2023-02-02T14:08:27.660Z,15.14
2023-02-02T14:10:54.389Z,15.11
2023-02-02T14:14:03.974Z,15.07
2023-02-02T14:16:30.812Z,15.06
2023-02-02T14:19:02.191Z,15.04
2023-02-02T14:21:32.236Z,15.03
2023-02-02T14:24:21.741Z,15.01
2023-02-02T14:26:50.467Z,14.97
2023-02-02T14:29:30.773Z,14.91
2023-02-02T14:32:00.991Z,14.84
2023-02-02T14:34:38.741Z,14.74
2023-02-02T14:37:13.547Z,14.68
2023-02-02T14:39:52.127Z,14.65
2023-02-02T14:43:00.191Z,14.66
2023-02-02T14:45:40.205Z,14.63
2023-02-02T14:48:06.937Z,14.56
2023-02-02T14:50:42.123Z,14.51
2023-02-02T14:53:12.648Z,14.45
2023-02-02T14:56:09.621Z,14.40
2023-02-02T14:58:40.516Z,14.38
2023-02-02T15:01:22.446Z,14.35
2023-02-02T15:04:15.155Z,14.30
2023-02-02T15:06:42.594Z,14.24
2023-02-02T15:09:20.002Z,14.22
2023-02-02T15:12:00.868Z,14.25
2023-02-02T15:14:43.774Z,14.25
2023-02-02T15:17:35.737Z,14.22
2023-02-02T15:20:40.466Z,14.15
2023-02-02T15:23:18.560Z,14.08
2023-02-02T15:26:00.561Z,14.04
2023-02-02T15:28:43.894Z,14.02
2023-02-02T15:31:43.711Z,14.00
2023-02-02T15:34:21.277Z,13.95
2023-02-02T15:36:50.941Z,13.90
2023-02-02T15:39:37.980Z,13.89
2023-02-02T15:42:26.772Z,13.92
2023-02-02T15:44:53.362Z,13.93
2023-02-02T15:47:25.927Z,13.90
2023-02-02T15:49:52.546Z,13.84
2023-02-02T15:52:32.106Z,13.79
2023-02-02T18:07:07.096Z,8.17
2023-02-02T18:09:34.017Z,11.19
2023-02-02T18:12:00.878Z,11.72
2023-02-02T18:14:28.471Z,12.01
2023-02-02T18:16:55.640Z,12.24
2023-02-02T18:19:22.360Z,12.42
2023-02-02T18:21:49.378Z,12.56
2023-02-02T18:24:16.648Z,12.64
2023-02-02T18:26:43.725Z,12.69
2023-02-02T18:29:10.634Z,12.72
2023-02-02T18:31:39.103Z,12.76
2023-02-02T18:34:07.085Z,12.82
2023-02-02T18:36:35.610Z,12.90
2023-02-02T18:39:02.995Z,12.98
2023-02-02T18:41:30.905Z,13.02
2023-02-02T18:43:58.173Z,13.04
2023-02-02T18:46:26.222Z,13.06
2023-02-02T18:48:53.207Z,13.08
2023-02-02T18:51:21.380Z,13.09
2023-02-02T18:53:48.134Z,13.10
2023-02-02T18:56:15.287Z,13.13
2023-02-02T18:58:42.442Z,13.18
2023-02-02T19:01:10.800Z,13.23
2023-02-02T19:03:38.788Z,13.25
2023-02-02T19:06:25.554Z,13.26
2023-02-02T19:08:53.114Z,13.27
2023-02-02T19:11:21.733Z,13.26
2023-02-02T19:13:48.749Z,13.24
2023-02-02T19:16:17.465Z,13.24
2023-02-02T19:18:45.818Z,13.27
2023-02-02T19:21:12.717Z,13.31
2023-02-02T19:23:40.223Z,13.34
2023-02-02T19:26:22.277Z,13.34
2023-02-02T19:28:49.976Z,13.32
2023-02-02T19:31:17.026Z,13.30
2023-02-02T19:33:50.510Z,13.28
2023-02-02T19:36:24.616Z,13.26
2023-02-02T19:38:52.737Z,13.27
2023-02-02T19:41:21.450Z,13.32
2023-02-02T19:43:49.070Z,13.36
2023-02-02T19:46:22.623Z,13.38
2023-02-02T19:48:52.246Z,13.39
2023-02-02T19:51:31.519Z,13.39
2023-02-02T19:53:59.178Z,13.36
2023-02-02T19:56:27.013Z,13.34
2023-02-02T19:58:54.201Z,13.33
2023-02-02T20:01:21.256Z,13.31
2023-02-02T20:03:50.453Z,13.33
2023-02-02T20:06:25.881Z,13.36
2023-02-02T20:08:52.866Z,13.39
2023-02-02T20:11:36.831Z,13.40
2023-02-02T20:14:17.783Z,13.38
2023-02-02T20:17:02.024Z,13.36
2023-02-02T20:19:33.573Z,13.36
2023-02-02T20:22:01.441Z,13.34
2023-02-02T20:24:39.718Z,13.30
2023-02-02T20:27:22.675Z,13.32
2023-02-02T20:29:51.079Z,13.38
2023-02-02T20:32:20.884Z,13.41
2023-02-02T20:34:49.199Z,13.41
2023-02-02T20:37:20.800Z,13.39
2023-02-02T20:40:01.549Z,13.37
2023-02-02T20:42:29.336Z,13.35
2023-02-02T20:44:58.177Z,13.33
2023-02-02T20:47:25.074Z,13.30
2023-02-02T20:49:52.018Z,13.30
2023-02-02T20:52:23.364Z,13.32
2023-02-02T20:54:50.928Z,13.35
2023-02-02T20:57:18.321Z,13.35
2023-02-02T20:59:45.441Z,13.33
2023-02-02T21:02:18.054Z,13.31
2023-02-02T21:04:48.900Z,13.28
2023-02-02T21:07:16.647Z,13.26
2023-02-02T21:09:44.514Z,13.23
2023-02-02T21:12:11.264Z,13.23
2023-02-02T21:14:39.008Z,13.24
2023-02-02T21:17:14.805Z,13.27
2023-02-02T21:19:42.791Z,13.30
2023-02-02T21:22:10.549Z,13.32
2023-02-02T21:24:37.866Z,13.31
2023-02-02T21:27:04.885Z,13.30
2023-02-02T21:29:32.382Z,13.30
2023-02-02T21:32:01.735Z,13.29
2023-02-02T21:34:29.015Z,13.28
2023-02-02T21:36:57.375Z,13.28
2023-02-02T21:39:36.733Z,13.31
2023-02-02T21:42:06.853Z,13.34
2023-02-02T21:44:40.490Z,13.36
2023-02-02T21:47:25.628Z,13.39
2023-02-02T21:49:54.959Z,13.39
2023-02-02T22:41:08.541Z,8.44
2023-02-02T22:43:36.402Z,11.40
2023-02-02T22:46:03.172Z,11.89
2023-02-02T22:48:30.183Z,12.17
2023-02-02T22:50:56.956Z,12.39
2023-02-02T22:53:23.675Z,12.57
2023-02-02T22:55:55.975Z,12.72
2023-02-02T22:58:25.063Z,12.80
2023-02-02T23:00:51.848Z,12.88
2023-02-02T23:03:18.724Z,12.95
2023-02-02T23:05:45.553Z,12.99
2023-02-02T23:08:12.430Z,13.05
2023-02-02T23:10:59.149Z,13.11
2023-02-02T23:13:26.557Z,13.19
2023-02-02T23:15:53.500Z,13.26
2023-02-02T23:18:20.364Z,13.30
2023-02-02T23:20:48.240Z,13.30
2023-02-02T23:23:15.169Z,13.29
2023-02-02T23:25:42.031Z,13.28
2023-02-02T23:28:09.938Z,13.27
2023-02-02T23:30:37.416Z,13.26
2023-02-02T23:33:04.199Z,13.26
2023-02-02T23:35:30.858Z,13.30
2023-02-02T23:37:57.580Z,13.40
2023-02-02T23:40:24.916Z,13.38
2023-02-02T23:42:52.008Z,13.36
2023-02-02T23:45:19.321Z,13.34
2023-02-02T23:47:46.069Z,13.31
2023-02-02T23:50:13.228Z,13.27
2023-02-02T23:52:40.313Z,13.24
2023-02-02T23:55:08.184Z,13.22
2023-02-02T23:57:36.014Z,13.21
